Twin Springs, Nevada Weather observations

Data are for observation ending at time listed.
 Day   Time    Ave.   Ave.  Ave.  Vector   Max.   Stn.    Total    Solar   Ave.  
  of    of     Air    Rel.  Wind   Wind    Wind   Baro.  Precip.   Rad.    Soil  
Year   Day     Temp.  Hum.  Speed  Dir.    Gust   Pres.                    Temp. 
2015   (PST)    F      %     mph   deg.    mph     mb.     in.     W/m2     F   
------------------------------------------------------------------------------
  61    3:00   32.5    97    1.2   320      3.0    837     0.00       0    39.5
  61    4:00   32.4    97    0.2   245      1.8    836     0.00       0    39.0
  61    5:00   32.4    97    0.0     0      0.0    835     0.00       0    38.6
  61    6:00   32.5    97    0.0     0      0.0    835     0.00       0    38.4
  61    7:00   32.8    97    0.0     0      0.0    835     0.00       5    38.1
  61    8:00   34.2    95    0.6   109      3.4    835     0.00      28    38.0
  61    9:00   33.9    92    4.0   204     12.3    835     0.00      57    37.8
  61   10:00   38.6    78    1.9   120      5.6    834     0.25     335    37.6
  61   11:00   40.1    70    5.2   252     16.3    834     0.00     519    37.6
  61   12:00   39.4    72    8.3   236     19.5    834     0.00     483    37.7
  61   13:00   39.3    73    9.3   259     19.1    834     0.00     468    38.8
  61   14:00   41.0    68    9.7   264     19.1    834     0.00     600    40.4
  61   15:00   40.9    66    9.3   262     18.1    834     0.00     310    42.1
  61   16:00   38.7    71    8.9   250     19.1    835     0.00     124    42.8
  61   17:00   37.6    75    3.3   264      9.3    835     0.00     111    42.6
  61   18:00   37.0    72    2.8   314      7.8    836     0.00      19    42.3
  61   19:00   34.3    79    4.2     8      8.3    837     0.00       0    41.6
  61   20:00   33.3    81    2.0     5      5.3    838     0.00       0    40.6
  61   21:00   31.4    88    2.7    30      6.1    838     0.00       0    39.7
  61   22:00   30.4    91    2.4   312      4.6    839     0.00       0    39.0
  61   23:00   29.8    91    1.3   301      4.0    839     0.00       0    38.4
  62    0:00   28.3    94    1.9   344      4.8    840     0.00       0    38.0
  62    1:00   27.6    95    3.4   298      5.5    840     0.00       0    37.6
  62    2:00   27.8    94    3.7   358      6.4    840     0.00       0    37.3

Return to Twin Springs, Nevada graphs page.


Western Regional Climate Center,wrcc@dri.edu